sensor_id;sensor_type;location;lat;lon;timestamp;pressure;altitude;pressure_sealevel;temperature;humidity
74466;BME280;62916;50.044;15.938;2023-06-04T00:02:13;99433.43;;;24.23;32.76
74466;BME280;62916;50.044;15.938;2023-06-04T00:04:44;99432.57;;;24.22;32.66
74466;BME280;62916;50.044;15.938;2023-06-04T00:07:15;99431.77;;;24.20;32.67
74466;BME280;62916;50.044;15.938;2023-06-04T00:09:46;99431.92;;;24.19;32.81
74466;BME280;62916;50.044;15.938;2023-06-04T00:12:17;99428.35;;;24.18;32.70
74466;BME280;62916;50.044;15.938;2023-06-04T00:14:48;99423.76;;;24.19;32.61
74466;BME280;62916;50.044;15.938;2023-06-04T00:17:18;99425.42;;;24.18;32.68
74466;BME280;62916;50.044;15.938;2023-06-04T00:19:49;99418.89;;;24.19;32.70
74466;BME280;62916;50.044;15.938;2023-06-04T00:22:20;99413.95;;;24.17;32.67
74466;BME280;62916;50.044;15.938;2023-06-04T00:24:51;99415.42;;;24.19;32.83
74466;BME280;62916;50.044;15.938;2023-06-04T00:27:22;99413.63;;;24.18;32.66
74466;BME280;62916;50.044;15.938;2023-06-04T00:29:52;99419.59;;;24.18;32.67
74466;BME280;62916;50.044;15.938;2023-06-04T00:32:23;99415.42;;;24.17;32.75
74466;BME280;62916;50.044;15.938;2023-06-04T00:34:55;99415.48;;;24.17;32.61
74466;BME280;62916;50.044;15.938;2023-06-04T00:37:28;99413.12;;;24.16;32.62
74466;BME280;62916;50.044;15.938;2023-06-04T00:40:00;99411.45;;;24.15;32.57
74466;BME280;62916;50.044;15.938;2023-06-04T00:42:31;99406.83;;;24.13;32.58
74466;BME280;62916;50.044;15.938;2023-06-04T00:45:02;99402.77;;;24.09;32.60
74466;BME280;62916;50.044;15.938;2023-06-04T00:47:33;99404.95;;;24.09;32.59
74466;BME280;62916;50.044;15.938;2023-06-04T00:50:04;99405.05;;;24.08;32.47
74466;BME280;62916;50.044;15.938;2023-06-04T00:52:36;99403.84;;;24.07;32.49
74466;BME280;62916;50.044;15.938;2023-06-04T00:55:08;99407.98;;;24.05;32.38
74466;BME280;62916;50.044;15.938;2023-06-04T00:57:40;99401.15;;;24.02;32.46
74466;BME280;62916;50.044;15.938;2023-06-04T01:00:12;99400.77;;;24.01;32.42
74466;BME280;62916;50.044;15.938;2023-06-04T01:02:45;99401.58;;;23.99;32.41
74466;BME280;62916;50.044;15.938;2023-06-04T01:05:24;99401.57;;;23.99;32.48
74466;BME280;62916;50.044;15.938;2023-06-04T01:08:00;99399.90;;;24.00;32.52
74466;BME280;62916;50.044;15.938;2023-06-04T01:10:31;99403.37;;;23.99;32.48
74466;BME280;62916;50.044;15.938;2023-06-04T01:13:02;99403.14;;;23.99;32.49
74466;BME280;62916;50.044;15.938;2023-06-04T01:15:33;99397.87;;;23.98;32.43
74466;BME280;62916;50.044;15.938;2023-06-04T01:18:04;99401.13;;;23.97;32.53
74466;BME280;62916;50.044;15.938;2023-06-04T01:20:39;99399.21;;;23.92;32.50
74466;BME280;62916;50.044;15.938;2023-06-04T01:23:28;99400.59;;;23.88;32.54
74466;BME280;62916;50.044;15.938;2023-06-04T01:26:04;99404.09;;;23.90;32.58
74466;BME280;62916;50.044;15.938;2023-06-04T01:28:35;99403.41;;;23.92;32.51
74466;BME280;62916;50.044;15.938;2023-06-04T01:31:07;99397.12;;;23.92;32.46
74466;BME280;62916;50.044;15.938;2023-06-04T01:33:38;99395.23;;;23.91;32.44
74466;BME280;62916;50.044;15.938;2023-06-04T01:36:09;99399.46;;;23.90;32.57
74466;BME280;62916;50.044;15.938;2023-06-04T01:38:41;99396.86;;;23.90;32.61
74466;BME280;62916;50.044;15.938;2023-06-04T01:41:12;99395.96;;;23.89;32.49
74466;BME280;62916;50.044;15.938;2023-06-04T01:43:43;99393.96;;;23.88;32.55
74466;BME280;62916;50.044;15.938;2023-06-04T01:46:14;99393.95;;;23.88;32.54
74466;BME280;62916;50.044;15.938;2023-06-04T01:48:45;99393.49;;;23.87;32.52
74466;BME280;62916;50.044;15.938;2023-06-04T01:51:18;99392.92;;;23.87;32.55
74466;BME280;62916;50.044;15.938;2023-06-04T01:53:49;99392.96;;;23.86;32.56
74466;BME280;62916;50.044;15.938;2023-06-04T01:56:20;99389.60;;;23.83;32.62
74466;BME280;62916;50.044;15.938;2023-06-04T01:58:51;99386.19;;;23.79;32.54
74466;BME280;62916;50.044;15.938;2023-06-04T02:01:22;99389.73;;;23.77;32.63
74466;BME280;62916;50.044;15.938;2023-06-04T02:03:53;99390.67;;;23.76;32.66
74466;BME280;62916;50.044;15.938;2023-06-04T02:06:24;99389.67;;;23.75;32.65
74466;BME280;62916;50.044;15.938;2023-06-04T02:08:59;99389.27;;;23.76;32.64
74466;BME280;62916;50.044;15.938;2023-06-04T02:11:30;99388.84;;;23.75;32.58
74466;BME280;62916;50.044;15.938;2023-06-04T02:14:00;99387.44;;;23.74;32.58
74466;BME280;62916;50.044;15.938;2023-06-04T02:16:31;99385.24;;;23.73;32.51
74466;BME280;62916;50.044;15.938;2023-06-04T02:19:02;99382.80;;;23.70;32.53
74466;BME280;62916;50.044;15.938;2023-06-04T02:21:34;99385.46;;;23.68;32.51
74466;BME280;62916;50.044;15.938;2023-06-04T02:24:04;99380.73;;;23.68;32.50
74466;BME280;62916;50.044;15.938;2023-06-04T02:26:35;99382.42;;;23.66;32.53
74466;BME280;62916;50.044;15.938;2023-06-04T02:29:06;99386.06;;;23.65;32.49
74466;BME280;62916;50.044;15.938;2023-06-04T02:31:37;99385.00;;;23.65;32.51
74466;BME280;62916;50.044;15.938;2023-06-04T02:34:08;99387.55;;;23.65;32.51
74466;BME280;62916;50.044;15.938;2023-06-04T02:36:39;99386.30;;;23.62;32.43
74466;BME280;62916;50.044;15.938;2023-06-04T02:39:10;99385.60;;;23.61;32.52
74466;BME280;62916;50.044;15.938;2023-06-04T02:41:40;99388.41;;;23.60;32.45
74466;BME280;62916;50.044;15.938;2023-06-04T02:44:11;99383.84;;;23.59;32.55
74466;BME280;62916;50.044;15.938;2023-06-04T02:46:43;99386.60;;;23.58;32.52
74466;BME280;62916;50.044;15.938;2023-06-04T02:49:14;99387.77;;;23.59;32.48
74466;BME280;62916;50.044;15.938;2023-06-04T02:51:46;99390.77;;;23.59;32.37
74466;BME280;62916;50.044;15.938;2023-06-04T02:54:17;99396.73;;;23.60;32.47
74466;BME280;62916;50.044;15.938;2023-06-04T02:56:47;99401.23;;;23.59;32.32
74466;BME280;62916;50.044;15.938;2023-06-04T02:59:20;99400.14;;;23.58;32.36
74466;BME280;62916;50.044;15.938;2023-06-04T03:01:51;99403.50;;;23.58;32.33
74466;BME280;62916;50.044;15.938;2023-06-04T03:04:23;99405.75;;;23.54;32.27
74466;BME280;62916;50.044;15.938;2023-06-04T03:06:54;99410.82;;;23.52;32.40
74466;BME280;62916;50.044;15.938;2023-06-04T03:09:27;99415.08;;;23.51;32.44
74466;BME280;62916;50.044;15.938;2023-06-04T03:12:00;99417.84;;;23.52;32.38
74466;BME280;62916;50.044;15.938;2023-06-04T03:14:33;99416.88;;;23.50;32.41
74466;BME280;62916;50.044;15.938;2023-06-04T03:17:05;99417.21;;;23.45;32.43
74466;BME280;62916;50.044;15.938;2023-06-04T03:19:41;99420.94;;;23.42;32.50
74466;BME280;62916;50.044;15.938;2023-06-04T03:22:12;99419.48;;;23.39;32.34
74466;BME280;62916;50.044;15.938;2023-06-04T03:24:43;99427.52;;;23.41;32.58
74466;BME280;62916;50.044;15.938;2023-06-04T03:27:14;99423.95;;;23.40;32.53
74466;BME280;62916;50.044;15.938;2023-06-04T03:29:44;99429.08;;;23.41;32.53
74466;BME280;62916;50.044;15.938;2023-06-04T03:32:16;99431.33;;;23.41;32.50
74466;BME280;62916;50.044;15.938;2023-06-04T03:34:47;99433.56;;;23.41;32.48
74466;BME280;62916;50.044;15.938;2023-06-04T03:37:18;99429.17;;;23.40;32.51
74466;BME280;62916;50.044;15.938;2023-06-04T03:39:48;99427.02;;;23.40;32.59
74466;BME280;62916;50.044;15.938;2023-06-04T03:42:20;99427.05;;;23.39;32.61
74466;BME280;62916;50.044;15.938;2023-06-04T03:44:50;99423.14;;;23.37;32.62
74466;BME280;62916;50.044;15.938;2023-06-04T03:47:21;99427.58;;;23.37;32.68
74466;BME280;62916;50.044;15.938;2023-06-04T03:49:52;99421.48;;;23.36;32.66
74466;BME280;62916;50.044;15.938;2023-06-04T03:52:23;99423.14;;;23.37;32.52
74466;BME280;62916;50.044;15.938;2023-06-04T03:54:54;99432.77;;;23.37;32.52
74466;BME280;62916;50.044;15.938;2023-06-04T03:57:24;99433.94;;;23.36;32.51
74466;BME280;62916;50.044;15.938;2023-06-04T03:59:55;99439.55;;;23.37;32.52
74466;BME280;62916;50.044;15.938;2023-06-04T04:02:26;99438.27;;;23.37;32.57
74466;BME280;62916;50.044;15.938;2023-06-04T04:04:57;99437.25;;;23.35;32.59
74466;BME280;62916;50.044;15.938;2023-06-04T04:07:29;99437.82;;;23.35;32.68
74466;BME280;62916;50.044;15.938;2023-06-04T04:10:00;99440.31;;;23.33;32.62
74466;BME280;62916;50.044;15.938;2023-06-04T04:12:31;99436.91;;;23.30;32.66
74466;BME280;62916;50.044;15.938;2023-06-04T04:15:02;99438.42;;;23.27;32.67
74466;BME280;62916;50.044;15.938;2023-06-04T04:17:34;99437.33;;;23.26;32.71
74466;BME280;62916;50.044;15.938;2023-06-04T04:20:05;99442.05;;;23.27;32.88
74466;BME280;62916;50.044;15.938;2023-06-04T04:22:39;99444.55;;;23.29;32.86
74466;BME280;62916;50.044;15.938;2023-06-04T04:25:09;99439.50;;;23.29;32.80
74466;BME280;62916;50.044;15.938;2023-06-04T04:27:40;99440.59;;;23.29;32.79
74466;BME280;62916;50.044;15.938;2023-06-04T04:30:11;99435.00;;;23.28;32.69
74466;BME280;62916;50.044;15.938;2023-06-04T04:32:43;99433.04;;;23.29;32.85
74466;BME280;62916;50.044;15.938;2023-06-04T04:35:18;99435.89;;;23.30;32.96
74466;BME280;62916;50.044;15.938;2023-06-04T04:37:49;99436.27;;;23.32;32.94
74466;BME280;62916;50.044;15.938;2023-06-04T04:40:20;99436.18;;;23.31;32.92
74466;BME280;62916;50.044;15.938;2023-06-04T04:42:50;99434.61;;;23.32;32.99
74466;BME280;62916;50.044;15.938;2023-06-04T04:45:21;99433.98;;;23.33;33.09
74466;BME280;62916;50.044;15.938;2023-06-04T04:47:52;99441.32;;;23.34;33.03
74466;BME280;62916;50.044;15.938;2023-06-04T04:50:23;99441.25;;;23.34;33.04
74466;BME280;62916;50.044;15.938;2023-06-04T04:52:54;99443.32;;;23.33;33.06
74466;BME280;62916;50.044;15.938;2023-06-04T04:55:25;99446.21;;;23.35;33.28
74466;BME280;62916;50.044;15.938;2023-06-04T04:57:56;99449.98;;;23.35;33.14
74466;BME280;62916;50.044;15.938;2023-06-04T05:00:26;99453.64;;;23.36;33.21
74466;BME280;62916;50.044;15.938;2023-06-04T05:02:57;99449.28;;;23.36;33.42
74466;BME280;62916;50.044;15.938;2023-06-04T05:05:28;99452.84;;;23.36;33.49
74466;BME280;62916;50.044;15.938;2023-06-04T05:07:59;99453.88;;;23.37;33.52
74466;BME280;62916;50.044;15.938;2023-06-04T05:10:30;99454.02;;;23.38;33.62
74466;BME280;62916;50.044;15.938;2023-06-04T05:13:01;99453.25;;;23.40;33.59
74466;BME280;62916;50.044;15.938;2023-06-04T05:15:33;99455.19;;;23.41;33.71
74466;BME280;62916;50.044;15.938;2023-06-04T05:18:04;99454.42;;;23.40;33.65
74466;BME280;62916;50.044;15.938;2023-06-04T05:20:35;99449.85;;;23.41;33.80
74466;BME280;62916;50.044;15.938;2023-06-04T05:23:07;99451.24;;;23.42;33.83
74466;BME280;62916;50.044;15.938;2023-06-04T05:25:38;99451.88;;;23.43;33.83
74466;BME280;62916;50.044;15.938;2023-06-04T05:28:10;99450.51;;;23.43;33.91
74466;BME280;62916;50.044;15.938;2023-06-04T05:30:42;99449.42;;;23.44;33.98
74466;BME280;62916;50.044;15.938;2023-06-04T05:33:13;99446.05;;;23.45;33.94
74466;BME280;62916;50.044;15.938;2023-06-04T05:35:48;99448.55;;;23.44;34.09
74466;BME280;62916;50.044;15.938;2023-06-04T05:38:19;99443.59;;;23.44;34.02
74466;BME280;62916;50.044;15.938;2023-06-04T05:40:50;99447.92;;;23.46;33.98
74466;BME280;62916;50.044;15.938;2023-06-04T05:43:21;99450.98;;;23.46;34.13
74466;BME280;62916;50.044;15.938;2023-06-04T05:45:53;99449.70;;;23.48;34.12
74466;BME280;62916;50.044;15.938;2023-06-04T05:48:24;99453.23;;;23.49;34.08
74466;BME280;62916;50.044;15.938;2023-06-04T05:50:54;99452.41;;;23.49;34.09
74466;BME280;62916;50.044;15.938;2023-06-04T05:53:26;99453.86;;;23.47;34.22
74466;BME280;62916;50.044;15.938;2023-06-04T05:55:56;99456.89;;;23.48;34.08
74466;BME280;62916;50.044;15.938;2023-06-04T05:58:27;99457.50;;;23.49;34.20
74466;BME280;62916;50.044;15.938;2023-06-04T06:00:58;99461.61;;;23.50;34.22
74466;BME280;62916;50.044;15.938;2023-06-04T06:03:29;99462.84;;;23.52;34.18
74466;BME280;62916;50.044;15.938;2023-06-04T06:06:02;99463.23;;;23.54;34.24
74466;BME280;62916;50.044;15.938;2023-06-04T06:08:35;99461.85;;;23.57;34.27
74466;BME280;62916;50.044;15.938;2023-06-04T06:11:06;99457.59;;;23.57;34.20
74466;BME280;62916;50.044;15.938;2023-06-04T06:13:39;99452.44;;;23.59;34.09
74466;BME280;62916;50.044;15.938;2023-06-04T06:16:10;99454.77;;;23.59;34.01
74466;BME280;62916;50.044;15.938;2023-06-04T06:18:41;99455.04;;;23.61;34.17
74466;BME280;62916;50.044;15.938;2023-06-04T06:21:12;99454.95;;;23.63;34.10
74466;BME280;62916;50.044;15.938;2023-06-04T06:23:43;99454.75;;;23.66;34.14
74466;BME280;62916;50.044;15.938;2023-06-04T06:26:14;99454.79;;;23.66;34.14
74466;BME280;62916;50.044;15.938;2023-06-04T06:28:49;99452.92;;;23.68;34.14
74466;BME280;62916;50.044;15.938;2023-06-04T06:31:20;99449.27;;;23.67;34.19
74466;BME280;62916;50.044;15.938;2023-06-04T06:33:51;99454.03;;;23.69;34.06
74466;BME280;62916;50.044;15.938;2023-06-04T06:36:22;99453.80;;;23.69;34.03
74466;BME280;62916;50.044;15.938;2023-06-04T06:38:53;99455.23;;;23.70;34.11
74466;BME280;62916;50.044;15.938;2023-06-04T06:41:23;99455.21;;;23.72;34.13
74466;BME280;62916;50.044;15.938;2023-06-04T06:43:55;99457.23;;;23.72;34.03
74466;BME280;62916;50.044;15.938;2023-06-04T06:46:26;99459.22;;;23.71;33.95
74466;BME280;62916;50.044;15.938;2023-06-04T06:48:57;99463.66;;;23.70;34.02
74466;BME280;62916;50.044;15.938;2023-06-04T06:51:30;99462.39;;;23.69;33.92
74466;BME280;62916;50.044;15.938;2023-06-04T06:54:01;99461.53;;;23.70;33.88
74466;BME280;62916;50.044;15.938;2023-06-04T06:56:32;99464.43;;;23.70;33.97
74466;BME280;62916;50.044;15.938;2023-06-04T06:59:03;99466.49;;;23.71;33.86
74466;BME280;62916;50.044;15.938;2023-06-04T07:01:34;99466.06;;;23.70;33.79
74466;BME280;62916;50.044;15.938;2023-06-04T07:04:05;99468.59;;;23.69;33.86
74466;BME280;62916;50.044;15.938;2023-06-04T07:06:37;99465.98;;;23.67;33.82
74466;BME280;62916;50.044;15.938;2023-06-04T07:09:08;99472.31;;;23.67;33.85
74466;BME280;62916;50.044;15.938;2023-06-04T07:11:39;99470.39;;;23.68;33.85
74466;BME280;62916;50.044;15.938;2023-06-04T07:14:10;99468.85;;;23.68;33.80
74466;BME280;62916;50.044;15.938;2023-06-04T07:16:41;99465.52;;;23.67;33.77
74466;BME280;62916;50.044;15.938;2023-06-04T07:19:12;99466.70;;;23.68;33.75
74466;BME280;62916;50.044;15.938;2023-06-04T07:21:44;99471.11;;;23.68;33.70
74466;BME280;62916;50.044;15.938;2023-06-04T07:24:15;99467.61;;;23.67;33.76
74466;BME280;62916;50.044;15.938;2023-06-04T07:26:46;99466.05;;;23.68;33.69
74466;BME280;62916;50.044;15.938;2023-06-04T07:29:18;99467.76;;;23.68;33.84
74466;BME280;62916;50.044;15.938;2023-06-04T07:31:49;99474.36;;;23.69;33.79
74466;BME280;62916;50.044;15.938;2023-06-04T07:34:20;99469.98;;;23.69;33.65
74466;BME280;62916;50.044;15.938;2023-06-04T07:36:51;99468.13;;;23.69;33.74
74466;BME280;62916;50.044;15.938;2023-06-04T07:39:22;99469.64;;;23.71;33.69
74466;BME280;62916;50.044;15.938;2023-06-04T07:41:55;99468.89;;;23.70;33.61
74466;BME280;62916;50.044;15.938;2023-06-04T07:44:25;99469.75;;;23.71;33.69
74466;BME280;62916;50.044;15.938;2023-06-04T07:46:56;99473.11;;;23.70;33.66
74466;BME280;62916;50.044;15.938;2023-06-04T07:49:27;99473.66;;;23.72;33.67
74466;BME280;62916;50.044;15.938;2023-06-04T07:51:58;99473.87;;;23.73;33.69
74466;BME280;62916;50.044;15.938;2023-06-04T07:54:30;99468.67;;;23.73;33.58
74466;BME280;62916;50.044;15.938;2023-06-04T07:57:01;99472.64;;;23.73;33.54
74466;BME280;62916;50.044;15.938;2023-06-04T07:59:32;99471.61;;;23.73;33.48
74466;BME280;62916;50.044;15.938;2023-06-04T08:02:03;99472.30;;;23.74;33.55
74466;BME280;62916;50.044;15.938;2023-06-04T08:04:34;99470.77;;;23.76;33.56
74466;BME280;62916;50.044;15.938;2023-06-04T08:07:05;99469.12;;;23.77;33.54
74466;BME280;62916;50.044;15.938;2023-06-04T08:09:36;99471.89;;;23.77;33.58
74466;BME280;62916;50.044;15.938;2023-06-04T08:12:07;99468.41;;;23.77;33.51
74466;BME280;62916;50.044;15.938;2023-06-04T08:14:39;99469.84;;;23.77;33.56
74466;BME280;62916;50.044;15.938;2023-06-04T08:17:10;99473.65;;;23.80;33.53
74466;BME280;62916;50.044;15.938;2023-06-04T08:19:41;99473.92;;;23.81;33.62
74466;BME280;62916;50.044;15.938;2023-06-04T08:22:12;99466.11;;;23.82;33.70
74466;BME280;62916;50.044;15.938;2023-06-04T08:24:44;99463.88;;;23.82;33.52
74466;BME280;62916;50.044;15.938;2023-06-04T08:27:16;99462.81;;;23.82;33.48
74466;BME280;62916;50.044;15.938;2023-06-04T08:29:47;99462.30;;;23.82;33.50
74466;BME280;62916;50.044;15.938;2023-06-04T08:32:18;99460.97;;;23.83;33.42
74466;BME280;62916;50.044;15.938;2023-06-04T08:34:49;99459.98;;;23.84;33.49
74466;BME280;62916;50.044;15.938;2023-06-04T08:37:20;99458.64;;;23.85;33.55
74466;BME280;62916;50.044;15.938;2023-06-04T08:39:51;99459.02;;;23.86;33.62
74466;BME280;62916;50.044;15.938;2023-06-04T08:42:26;99459.44;;;23.87;33.74
74466;BME280;62916;50.044;15.938;2023-06-04T08:44:58;99460.68;;;23.89;33.77
74466;BME280;62916;50.044;15.938;2023-06-04T08:47:32;99457.98;;;23.90;33.69
74466;BME280;62916;50.044;15.938;2023-06-04T08:50:07;99462.08;;;23.91;33.72
74466;BME280;62916;50.044;15.938;2023-06-04T08:52:40;99462.36;;;23.92;33.64
74466;BME280;62916;50.044;15.938;2023-06-04T08:55:12;99463.60;;;23.93;33.58
74466;BME280;62916;50.044;15.938;2023-06-04T08:57:44;99464.52;;;23.93;33.56
74466;BME280;62916;50.044;15.938;2023-06-04T09:00:17;99466.13;;;23.93;33.55
74466;BME280;62916;50.044;15.938;2023-06-04T09:02:49;99471.06;;;23.95;33.80
74466;BME280;62916;50.044;15.938;2023-06-04T09:05:22;99463.29;;;23.93;33.59
74466;BME280;62916;50.044;15.938;2023-06-04T09:07:54;99469.13;;;23.95;33.75
74466;BME280;62916;50.044;15.938;2023-06-04T09:10:27;99469.95;;;23.95;33.67
74466;BME280;62916;50.044;15.938;2023-06-04T09:13:02;99466.59;;;23.96;33.44
74466;BME280;62916;50.044;15.938;2023-06-04T09:15:34;99470.30;;;23.96;33.47
74466;BME280;62916;50.044;15.938;2023-06-04T09:18:05;99470.23;;;23.96;33.27
74466;BME280;62916;50.044;15.938;2023-06-04T09:20:36;99470.02;;;23.97;33.06
74466;BME280;62916;50.044;15.938;2023-06-04T09:23:15;99467.98;;;23.95;33.07
74466;BME280;62916;50.044;15.938;2023-06-04T09:25:46;99469.80;;;23.95;32.85
74466;BME280;62916;50.044;15.938;2023-06-04T09:28:17;99468.46;;;23.94;32.76
74466;BME280;62916;50.044;15.938;2023-06-04T09:30:53;99465.03;;;23.96;32.73
74466;BME280;62916;50.044;15.938;2023-06-04T09:33:24;99462.02;;;23.94;32.61
74466;BME280;62916;50.044;15.938;2023-06-04T09:35:57;99463.80;;;23.95;32.56
74466;BME280;62916;50.044;15.938;2023-06-04T09:38:35;99465.59;;;23.95;32.65
74466;BME280;62916;50.044;15.938;2023-06-04T09:41:12;99469.80;;;23.95;32.47
74466;BME280;62916;50.044;15.938;2023-06-04T09:43:43;99467.57;;;23.98;32.22
74466;BME280;62916;50.044;15.938;2023-06-04T09:46:16;99468.34;;;23.99;32.02
74466;BME280;62916;50.044;15.938;2023-06-04T09:48:47;99467.51;;;23.98;31.94
74466;BME280;62916;50.044;15.938;2023-06-04T09:51:18;99463.30;;;23.98;32.02
74466;BME280;62916;50.044;15.938;2023-06-04T09:53:56;99459.36;;;23.97;32.13
74466;BME280;62916;50.044;15.938;2023-06-04T09:56:28;99462.66;;;23.98;32.12
74466;BME280;62916;50.044;15.938;2023-06-04T09:58:59;99459.14;;;23.99;32.14
74466;BME280;62916;50.044;15.938;2023-06-04T10:01:31;99461.27;;;24.00;32.13
74466;BME280;62916;50.044;15.938;2023-06-04T10:04:05;99457.90;;;24.01;32.02
74466;BME280;62916;50.044;15.938;2023-06-04T10:06:37;99458.14;;;24.00;32.02
74466;BME280;62916;50.044;15.938;2023-06-04T10:09:09;99453.94;;;24.00;31.99
74466;BME280;62916;50.044;15.938;2023-06-04T10:11:50;99451.38;;;24.01;32.05
74466;BME280;62916;50.044;15.938;2023-06-04T10:14:25;99455.63;;;24.00;31.94
74466;BME280;62916;50.044;15.938;2023-06-04T10:17:00;99456.27;;;24.02;31.98
74466;BME280;62916;50.044;15.938;2023-06-04T10:19:30;99456.11;;;24.02;31.96
74466;BME280;62916;50.044;15.938;2023-06-04T10:22:02;99452.54;;;24.00;32.13
74466;BME280;62916;50.044;15.938;2023-06-04T10:24:34;99454.80;;;24.02;31.83
74466;BME280;62916;50.044;15.938;2023-06-04T10:27:07;99452.41;;;24.03;31.58
74466;BME280;62916;50.044;15.938;2023-06-04T10:29:40;99445.02;;;24.04;31.62
74466;BME280;62916;50.044;15.938;2023-06-04T10:32:11;99444.61;;;24.04;31.69
74466;BME280;62916;50.044;15.938;2023-06-04T10:34:43;99447.08;;;24.05;31.67
74466;BME280;62916;50.044;15.938;2023-06-04T10:37:21;99447.24;;;24.05;31.62
74466;BME280;62916;50.044;15.938;2023-06-04T10:39:56;99448.55;;;24.07;31.58
74466;BME280;62916;50.044;15.938;2023-06-04T10:42:39;99450.15;;;24.08;31.73
74466;BME280;62916;50.044;15.938;2023-06-04T10:45:11;99444.91;;;24.09;31.46
74466;BME280;62916;50.044;15.938;2023-06-04T10:47:42;99449.05;;;24.09;31.10
74466;BME280;62916;50.044;15.938;2023-06-04T10:50:14;99450.42;;;24.08;30.98
74466;BME280;62916;50.044;15.938;2023-06-04T10:52:53;99448.25;;;24.09;31.15
74466;BME280;62916;50.044;15.938;2023-06-04T10:55:24;99443.75;;;24.08;31.20
74466;BME280;62916;50.044;15.938;2023-06-04T10:57:57;99444.31;;;24.10;31.34
74466;BME280;62916;50.044;15.938;2023-06-04T11:00:38;99441.02;;;24.10;31.39
74466;BME280;62916;50.044;15.938;2023-06-04T11:03:11;99439.71;;;24.10;31.43
74466;BME280;62916;50.044;15.938;2023-06-04T11:05:44;99434.55;;;24.10;31.57
74466;BME280;62916;50.044;15.938;2023-06-04T11:08:25;99434.42;;;24.11;31.62
74466;BME280;62916;50.044;15.938;2023-06-04T11:10:57;99430.69;;;24.09;31.61
74466;BME280;62916;50.044;15.938;2023-06-04T11:13:28;99435.98;;;24.11;31.70
74466;BME280;62916;50.044;15.938;2023-06-04T11:15:59;99432.77;;;24.12;31.72
74466;BME280;62916;50.044;15.938;2023-06-04T11:18:30;99430.42;;;24.14;31.51
74466;BME280;62916;50.044;15.938;2023-06-04T11:21:02;99432.13;;;24.16;31.49
74466;BME280;62916;50.044;15.938;2023-06-04T11:23:34;99428.79;;;24.16;31.47
74466;BME280;62916;50.044;15.938;2023-06-04T11:26:05;99428.42;;;24.16;31.58
74466;BME280;62916;50.044;15.938;2023-06-04T11:28:36;99429.52;;;24.18;31.74
74466;BME280;62916;50.044;15.938;2023-06-04T11:31:07;99430.92;;;24.18;31.82
74466;BME280;62916;50.044;15.938;2023-06-04T11:33:45;99427.49;;;24.17;32.03
74466;BME280;62916;50.044;15.938;2023-06-04T11:36:25;99429.92;;;24.19;31.88
74466;BME280;62916;50.044;15.938;2023-06-04T11:38:57;99430.27;;;24.19;31.98
74466;BME280;62916;50.044;15.938;2023-06-04T11:41:30;99432.56;;;24.20;32.09
74466;BME280;62916;50.044;15.938;2023-06-04T11:44:03;99428.91;;;24.21;32.10
74466;BME280;62916;50.044;15.938;2023-06-04T11:46:41;99428.38;;;24.22;32.24
74466;BME280;62916;50.044;15.938;2023-06-04T11:49:16;99429.79;;;24.24;32.34
74466;BME280;62916;50.044;15.938;2023-06-04T11:51:48;99431.40;;;24.23;32.48
74466;BME280;62916;50.044;15.938;2023-06-04T11:54:20;99434.66;;;24.24;32.56
74466;BME280;62916;50.044;15.938;2023-06-04T11:56:52;99434.99;;;24.24;32.63
74466;BME280;62916;50.044;15.938;2023-06-04T11:59:23;99438.13;;;24.25;32.70
74466;BME280;62916;50.044;15.938;2023-06-04T12:01:56;99432.13;;;24.25;32.86
74466;BME280;62916;50.044;15.938;2023-06-04T12:04:30;99434.92;;;24.26;32.75
74466;BME280;62916;50.044;15.938;2023-06-04T12:07:02;99432.46;;;24.27;32.90
74466;BME280;62916;50.044;15.938;2023-06-04T12:09:34;99427.13;;;24.27;32.87
74466;BME280;62916;50.044;15.938;2023-06-04T12:12:08;99425.35;;;24.27;33.00
74466;BME280;62916;50.044;15.938;2023-06-04T12:14:40;99418.77;;;24.26;33.01
74466;BME280;62916;50.044;15.938;2023-06-04T12:17:14;99418.45;;;24.28;33.07
74466;BME280;62916;50.044;15.938;2023-06-04T12:19:49;99417.92;;;24.29;33.15
74466;BME280;62916;50.044;15.938;2023-06-04T12:22:20;99416.65;;;24.30;33.20
74466;BME280;62916;50.044;15.938;2023-06-04T12:24:52;99417.09;;;24.30;33.23
74466;BME280;62916;50.044;15.938;2023-06-04T12:27:24;99414.55;;;24.32;33.28
74466;BME280;62916;50.044;15.938;2023-06-04T12:30:00;99412.77;;;24.32;33.44
74466;BME280;62916;50.044;15.938;2023-06-04T12:32:34;99417.51;;;24.33;33.39
74466;BME280;62916;50.044;15.938;2023-06-04T12:35:07;99412.73;;;24.33;33.46
74466;BME280;62916;50.044;15.938;2023-06-04T12:37:38;99413.89;;;24.34;33.44
74466;BME280;62916;50.044;15.938;2023-06-04T12:40:11;99411.85;;;24.33;33.45
74466;BME280;62916;50.044;15.938;2023-06-04T12:42:42;99411.61;;;24.34;33.43
74466;BME280;62916;50.044;15.938;2023-06-04T12:45:15;99416.48;;;24.35;33.66
74466;BME280;62916;50.044;15.938;2023-06-04T12:47:46;99411.25;;;24.35;33.68
74466;BME280;62916;50.044;15.938;2023-06-04T12:50:17;99411.11;;;24.35;33.73
74466;BME280;62916;50.044;15.938;2023-06-04T12:52:50;99410.85;;;24.36;33.61
74466;BME280;62916;50.044;15.938;2023-06-04T12:55:21;99410.25;;;24.37;33.74
74466;BME280;62916;50.044;15.938;2023-06-04T12:57:55;99409.41;;;24.37;33.80
74466;BME280;62916;50.044;15.938;2023-06-04T13:00:26;99409.05;;;24.37;33.78
74466;BME280;62916;50.044;15.938;2023-06-04T13:02:57;99406.48;;;24.38;33.96
74466;BME280;62916;50.044;15.938;2023-06-04T13:05:28;99405.85;;;24.38;33.95
74466;BME280;62916;50.044;15.938;2023-06-04T13:07:59;99406.18;;;24.39;33.99
74466;BME280;62916;50.044;15.938;2023-06-04T13:10:30;99404.44;;;24.40;34.04
74466;BME280;62916;50.044;15.938;2023-06-04T13:13:01;99400.64;;;24.39;33.98
74466;BME280;62916;50.044;15.938;2023-06-04T13:15:32;99399.94;;;24.40;34.12